createdAt,value
2023-03-21T00:11:02.731Z,6.58
2023-03-21T00:23:04.905Z,6.37
2023-03-21T00:35:29.665Z,6.24
2023-03-21T00:47:07.536Z,6.16
2023-03-21T00:59:04.609Z,6.00
2023-03-21T01:11:05.027Z,6.27
2023-03-21T01:23:09.747Z,6.58
2023-03-21T01:35:05.971Z,6.03
2023-03-21T01:47:11.833Z,5.49
2023-03-21T01:59:09.496Z,5.57
2023-03-21T02:11:07.287Z,5.26
2023-03-21T02:23:07.731Z,4.82
2023-03-21T02:35:08.189Z,5.20
2023-03-21T02:47:08.748Z,4.73
2023-03-21T02:59:11.370Z,4.44
2023-03-21T03:11:09.566Z,3.90
2023-03-21T03:23:10.011Z,3.68
2023-03-21T03:35:10.406Z,3.91
2023-03-21T03:47:22.939Z,4.46
2023-03-21T03:59:14.066Z,3.57
2023-03-21T04:11:14.007Z,3.15
2023-03-21T04:23:12.264Z,3.48
2023-03-21T04:35:12.702Z,3.48
2023-03-21T04:47:13.193Z,3.27
2023-03-21T04:59:15.848Z,3.77
2023-03-21T05:11:14.066Z,4.25
2023-03-21T05:23:14.509Z,3.54
2023-03-21T05:35:15.004Z,3.66
2023-03-21T05:47:15.411Z,3.90
2023-03-21T05:59:15.881Z,3.73
2023-03-21T06:11:16.373Z,4.26
2023-03-21T06:23:16.806Z,4.81
2023-03-21T06:35:17.229Z,5.39
2023-03-21T06:47:17.692Z,6.33
2023-03-21T06:59:18.126Z,7.15
2023-03-21T07:11:18.621Z,7.99
2023-03-21T07:23:19.086Z,9.25
2023-03-21T07:35:19.506Z,11.90
2023-03-21T07:47:19.954Z,13.12
2023-03-21T07:59:20.434Z,13.39
2023-03-21T08:11:20.842Z,13.18
2023-03-21T08:23:21.306Z,13.73
2023-03-21T08:35:21.757Z,14.44
2023-03-21T08:47:22.230Z,15.32
2023-03-21T08:59:22.664Z,14.94
